createdAt,value
2022-09-16T00:00:13.615Z,0.77
2022-09-16T00:02:43.091Z,1.20
2022-09-16T00:05:11.530Z,1.07
2022-09-16T00:07:39.688Z,1.33
2022-09-16T00:10:08.942Z,0.80
2022-09-16T00:12:37.370Z,0.70
2022-09-16T00:15:06.096Z,1.60
2022-09-16T00:17:34.744Z,1.00
2022-09-16T00:20:05.178Z,0.83
2022-09-16T00:22:33.625Z,0.50
2022-09-16T00:25:01.653Z,0.80
2022-09-16T00:27:29.753Z,0.80
2022-09-16T00:29:57.761Z,1.00
2022-09-16T00:32:25.765Z,1.13
2022-09-16T00:34:54.114Z,0.80
2022-09-16T00:37:23.532Z,0.70
2022-09-16T00:39:52.158Z,0.90
2022-09-16T00:42:20.569Z,0.80
2022-09-16T00:45:00.435Z,0.67
2022-09-16T00:47:32.825Z,0.80
2022-09-16T00:50:05.970Z,0.83
2022-09-16T00:52:35.918Z,0.63
2022-09-16T00:55:09.643Z,0.70
2022-09-16T00:57:39.246Z,0.57
2022-09-16T01:00:09.708Z,0.93
2022-09-16T01:02:37.820Z,0.80
2022-09-16T01:05:09.393Z,0.70
2022-09-16T01:07:43.294Z,0.97
2022-09-16T01:10:12.823Z,0.87
2022-09-16T01:12:42.470Z,0.80
2022-09-16T01:15:13.960Z,0.80
2022-09-16T01:17:54.556Z,0.90
2022-09-16T01:20:51.789Z,0.80
2022-09-16T01:23:52.167Z,0.83
2022-09-16T01:26:36.747Z,0.90
2022-09-16T01:29:34.323Z,1.40
2022-09-16T01:32:08.883Z,0.90
2022-09-16T01:34:46.143Z,1.00
2022-09-16T01:37:23.086Z,1.20
2022-09-16T01:39:58.464Z,0.80
2022-09-16T01:42:37.393Z,0.80
2022-09-16T01:53:20.790Z,1.13
2022-09-16T01:55:54.159Z,1.10
2022-09-16T01:58:28.828Z,1.20
2022-09-16T02:01:02.804Z,1.20
2022-09-16T02:03:35.330Z,1.30
2022-09-16T02:06:06.425Z,0.80
2022-09-16T02:08:38.959Z,1.20
2022-09-16T02:11:12.103Z,1.00
2022-09-16T02:14:20.613Z,1.80
2022-09-16T02:16:52.905Z,1.40
2022-09-16T02:19:24.338Z,1.27
2022-09-16T02:21:54.907Z,0.93
2022-09-16T02:24:25.414Z,1.30
2022-09-16T02:26:59.635Z,1.20
2022-09-16T02:29:31.791Z,1.20
2022-09-16T02:32:03.635Z,1.40
2022-09-16T02:34:37.146Z,1.20
2022-09-16T02:37:08.622Z,1.27
2022-09-16T02:39:40.056Z,0.87
2022-09-16T02:42:09.583Z,1.60
2022-09-16T02:44:37.968Z,1.30
2022-09-16T02:47:13.125Z,1.40
2022-09-16T02:49:46.723Z,1.10
2022-09-16T02:52:21.146Z,1.43
2022-09-16T02:54:54.145Z,1.43
2022-09-16T02:57:24.037Z,1.20
2022-09-16T02:59:52.910Z,1.70
2022-09-16T03:07:43.652Z,1.60
2022-09-16T03:10:12.745Z,1.20
2022-09-16T03:12:52.159Z,1.10
2022-09-16T03:15:40.317Z,0.70
2022-09-16T03:18:38.037Z,1.43
2022-09-16T03:21:15.026Z,0.93
2022-09-16T03:23:50.455Z,0.87
2022-09-16T03:26:26.554Z,1.37
2022-09-16T03:29:08.697Z,1.00
2022-09-16T03:31:45.466Z,1.57
2022-09-16T03:34:18.563Z,1.40
2022-09-16T03:36:50.676Z,1.60
2022-09-16T03:39:19.207Z,1.80
2022-09-16T03:41:47.281Z,3.00
2022-09-16T03:44:16.827Z,2.37
2022-09-16T03:46:45.097Z,1.97
2022-09-16T03:49:13.626Z,2.10
2022-09-16T03:51:41.657Z,2.27
2022-09-16T03:54:10.503Z,2.93
2022-09-16T03:56:38.629Z,2.17
2022-09-16T03:59:06.640Z,2.50
2022-09-16T04:01:36.101Z,2.13
2022-09-16T04:04:04.246Z,3.40
2022-09-16T04:06:32.340Z,2.60
2022-09-16T04:09:00.895Z,2.43
2022-09-16T04:11:29.792Z,2.03
2022-09-16T04:13:57.844Z,2.00
2022-09-16T04:16:26.562Z,2.77
2022-09-16T04:18:56.009Z,2.30
2022-09-16T04:21:24.331Z,1.73
2022-09-16T04:23:54.705Z,2.13
2022-09-16T04:26:22.769Z,1.93
2022-09-16T04:28:54.453Z,2.00
2022-09-16T04:31:22.957Z,1.87
2022-09-16T04:33:51.243Z,1.77
2022-09-16T04:36:21.589Z,1.47
2022-09-16T04:38:50.567Z,1.40
2022-09-16T04:41:20.571Z,1.17
2022-09-16T04:43:52.191Z,1.07
2022-09-16T04:46:20.544Z,1.30
2022-09-16T04:48:49.485Z,1.30
2022-09-16T04:51:19.487Z,1.23
2022-09-16T04:53:49.592Z,1.13
2022-09-16T04:56:19.615Z,1.20
2022-09-16T04:58:49.508Z,1.37
2022-09-16T05:01:19.033Z,1.20
2022-09-16T05:03:48.589Z,1.00
2022-09-16T05:06:20.847Z,1.03
2022-09-16T05:08:51.775Z,1.13
2022-09-16T05:11:22.333Z,1.00
2022-09-16T05:13:50.889Z,1.27
2022-09-16T05:16:20.877Z,1.47
2022-09-16T05:18:50.695Z,1.00
2022-09-16T05:21:21.282Z,0.80
2022-09-16T05:23:50.951Z,1.20
2022-09-16T05:26:20.360Z,1.40
2022-09-16T05:28:50.914Z,1.10
2022-09-16T05:31:21.519Z,1.43
2022-09-16T05:33:55.854Z,1.03
2022-09-16T05:36:24.661Z,1.17
2022-09-16T05:39:21.055Z,1.53
2022-09-16T05:41:42.551Z,1.10
2022-09-16T05:44:10.886Z,1.47
2022-09-16T05:46:40.638Z,1.43
2022-09-16T05:49:09.175Z,0.90
2022-09-16T05:51:38.673Z,1.20
2022-09-16T05:54:08.554Z,1.37
2022-09-16T05:56:36.732Z,1.23
2022-09-16T05:59:05.046Z,0.90
2022-09-16T06:01:35.159Z,1.00
2022-09-16T06:04:08.004Z,1.40
2022-09-16T06:06:37.803Z,0.80
2022-09-16T06:09:09.811Z,1.10
2022-09-16T06:11:39.937Z,0.97
2022-09-16T06:14:09.232Z,0.57
2022-09-16T06:16:37.653Z,0.60
2022-09-16T06:19:10.483Z,0.93
2022-09-16T06:21:39.128Z,0.52
2022-09-16T06:24:09.243Z,0.65
2022-09-16T06:26:38.401Z,0.90
2022-09-16T06:29:06.897Z,0.68
2022-09-16T06:31:36.462Z,0.50
2022-09-16T06:34:05.410Z,0.70
2022-09-16T06:36:35.732Z,0.80
2022-09-16T06:39:04.170Z,0.60
2022-09-16T06:41:34.530Z,0.40
2022-09-16T06:44:03.130Z,0.50
2022-09-16T06:46:31.295Z,0.80
2022-09-16T06:49:04.559Z,0.90
2022-09-16T06:59:17.077Z,0.68
2022-09-16T07:01:45.300Z,1.05
2022-09-16T07:04:14.159Z,0.55
2022-09-16T07:07:08.296Z,0.70
2022-09-16T07:09:32.579Z,0.75
2022-09-16T07:12:01.496Z,1.15
2022-09-16T07:14:32.641Z,1.33
2022-09-16T07:17:01.225Z,0.50
2022-09-16T07:19:29.627Z,0.80
2022-09-16T07:21:58.245Z,0.82
2022-09-16T07:24:26.336Z,0.77
2022-09-16T07:26:54.384Z,1.02
2022-09-16T07:29:22.442Z,0.80
2022-09-16T07:31:51.861Z,0.90
2022-09-16T07:34:20.113Z,0.57
2022-09-16T07:36:49.945Z,0.90
2022-09-16T07:39:19.637Z,1.20
2022-09-16T07:41:49.109Z,0.60
2022-09-16T07:44:18.843Z,0.80
2022-09-16T07:46:48.128Z,0.98
2022-09-16T07:49:17.696Z,0.82
2022-09-16T07:51:45.772Z,0.70
2022-09-16T07:54:16.444Z,0.68
2022-09-16T07:56:45.456Z,0.68
2022-09-16T07:59:18.451Z,1.00
2022-09-16T08:01:47.396Z,0.60
2022-09-16T08:04:17.537Z,0.95
2022-09-16T08:06:45.837Z,0.75
2022-09-16T08:09:38.160Z,0.60
2022-09-16T08:12:05.354Z,0.90
2022-09-16T08:14:33.870Z,0.80
2022-09-16T08:17:03.455Z,0.77
2022-09-16T08:19:32.931Z,0.80
2022-09-16T08:22:00.979Z,0.80
2022-09-16T08:24:29.070Z,0.70
2022-09-16T08:29:30.117Z,0.50
2022-09-16T08:31:58.229Z,0.90
2022-09-16T08:34:26.324Z,0.77
2022-09-16T08:36:55.724Z,1.13
2022-09-16T08:39:23.747Z,0.90
2022-09-16T08:42:31.530Z,1.00
2022-09-16T08:45:19.183Z,0.82
2022-09-16T08:48:03.244Z,1.15
2022-09-16T08:50:36.753Z,1.00
2022-09-16T08:53:11.935Z,1.33
2022-09-16T08:55:46.692Z,0.88
2022-09-16T08:58:17.725Z,0.93
2022-09-16T09:00:50.157Z,0.77
2022-09-16T09:03:26.872Z,0.95
2022-09-16T09:05:56.864Z,0.68
2022-09-16T09:08:40.949Z,0.80
2022-09-16T09:11:14.367Z,0.70
2022-09-16T09:13:58.228Z,0.90
2022-09-16T09:16:38.157Z,0.80
2022-09-16T09:19:21.196Z,0.70
2022-09-16T09:21:57.344Z,0.57
2022-09-16T09:24:57.489Z,0.60
2022-09-16T09:27:29.422Z,0.60
2022-09-16T09:30:11.742Z,0.63
2022-09-16T09:33:17.565Z,0.73
2022-09-16T09:36:14.397Z,0.70
2022-09-16T09:39:13.790Z,0.45
2022-09-16T09:41:47.702Z,0.32
2022-09-16T09:44:34.979Z,0.57
2022-09-16T09:47:08.667Z,0.60
2022-09-16T09:49:42.177Z,0.50
2022-09-16T09:52:18.054Z,0.40
2022-09-16T09:54:51.042Z,0.50
2022-09-16T09:57:30.504Z,0.70
2022-09-16T10:00:07.216Z,0.40
2022-09-16T10:02:37.612Z,0.50
2022-09-16T10:05:07.591Z,0.63
2022-09-16T10:07:39.254Z,0.60
2022-09-16T10:10:20.565Z,0.90
2022-09-16T10:12:50.795Z,0.50
2022-09-16T10:15:23.614Z,0.70
2022-09-16T10:17:53.046Z,0.70
2022-09-16T10:20:29.354Z,0.82
2022-09-16T10:23:01.975Z,0.70
2022-09-16T10:25:32.262Z,0.70
2022-09-16T10:28:03.797Z,0.60
2022-09-16T10:30:34.387Z,0.45
2022-09-16T10:33:05.662Z,0.60
2022-09-16T10:35:36.935Z,0.60
2022-09-16T10:38:07.976Z,0.60
2022-09-16T10:40:37.563Z,0.60
2022-09-16T10:43:14.772Z,0.47
2022-09-16T10:45:49.072Z,0.50
2022-09-16T10:48:20.215Z,0.50
2022-09-16T10:50:55.907Z,0.55
2022-09-16T10:53:28.791Z,0.32
2022-09-16T10:56:01.638Z,0.77
2022-09-16T10:58:31.543Z,1.13
2022-09-16T11:01:12.330Z,0.25
2022-09-16T11:04:05.443Z,0.40
2022-09-16T11:06:53.008Z,0.50
2022-09-16T11:09:30.634Z,0.50
2022-09-16T11:12:18.885Z,0.30
2022-09-16T11:14:57.985Z,0.50
2022-09-16T11:17:41.810Z,0.52
2022-09-16T11:20:35.813Z,0.30
2022-09-16T11:23:13.685Z,0.45
2022-09-16T11:25:51.281Z,0.43
2022-09-16T11:28:51.690Z,0.75
2022-09-16T11:31:32.884Z,0.70
2022-09-16T11:34:08.357Z,0.37
2022-09-16T11:36:51.249Z,0.40
2022-09-16T11:39:38.276Z,0.63
2022-09-16T11:42:17.773Z,0.30
2022-09-16T11:44:50.143Z,0.60
2022-09-16T11:47:42.879Z,0.40
2022-09-16T11:50:27.940Z,0.40
2022-09-16T11:53:23.718Z,0.40
2022-09-16T11:55:58.168Z,0.40
2022-09-16T11:58:34.524Z,0.50
2022-09-16T12:01:14.267Z,0.43
2022-09-16T12:03:50.228Z,0.67
2022-09-16T12:06:22.241Z,0.80
2022-09-16T12:08:56.208Z,0.50
2022-09-16T12:11:32.931Z,0.73
2022-09-16T12:21:51.076Z,1.60
2022-09-16T12:24:28.930Z,0.70
2022-09-16T12:27:04.020Z,0.60
2022-09-16T12:29:39.787Z,0.73
2022-09-16T12:32:13.655Z,0.40
2022-09-16T12:34:49.651Z,0.70
2022-09-16T12:37:31.028Z,0.70
2022-09-16T12:39:59.168Z,0.83
2022-09-16T12:43:11.784Z,0.60
2022-09-16T12:45:59.608Z,0.50
2022-09-16T12:48:48.787Z,0.40
2022-09-16T12:51:34.613Z,0.60
2022-09-16T12:55:03.920Z,0.50
2022-09-16T12:57:45.814Z,0.60
2022-09-16T13:00:21.992Z,0.60
2022-09-16T13:02:54.177Z,1.10
2022-09-16T13:05:30.970Z,0.83
2022-09-16T13:08:05.179Z,0.80
2022-09-16T13:10:56.088Z,0.77
2022-09-16T13:13:33.139Z,0.60
2022-09-16T13:16:03.751Z,0.60
2022-09-16T13:18:44.095Z,0.60
2022-09-16T13:21:25.679Z,0.90
2022-09-16T13:24:02.799Z,0.80
2022-09-16T13:26:41.861Z,0.97
2022-09-16T13:29:32.345Z,1.13
2022-09-16T13:32:00.565Z,0.73
2022-09-16T13:34:28.820Z,1.00
2022-09-16T13:36:57.838Z,0.90
2022-09-16T13:39:31.101Z,1.10
2022-09-16T13:42:12.429Z,0.97
2022-09-16T13:44:44.151Z,0.90
2022-09-16T13:47:18.177Z,1.13
2022-09-16T13:49:51.647Z,1.00
2022-09-16T13:52:23.042Z,0.57
2022-09-16T13:55:09.998Z,0.90
2022-09-16T13:57:58.504Z,0.63
2022-09-16T14:00:33.732Z,0.80
2022-09-16T14:03:37.095Z,0.70
2022-09-16T14:06:33.771Z,1.00
2022-09-16T14:09:10.844Z,0.40
2022-09-16T14:11:47.628Z,0.50
2022-09-16T14:14:45.667Z,0.67
2022-09-16T14:17:18.660Z,0.50
2022-09-16T14:19:49.636Z,0.47
2022-09-16T14:22:19.707Z,1.17
2022-09-16T14:24:52.941Z,0.80
2022-09-16T14:27:30.423Z,0.70
2022-09-16T14:30:01.451Z,0.60
2022-09-16T14:32:31.882Z,0.77
2022-09-16T14:35:03.567Z,1.00
2022-09-16T14:37:33.278Z,0.83
2022-09-16T14:40:08.447Z,1.30
2022-09-16T14:42:37.582Z,1.40
2022-09-16T14:45:08.783Z,0.97
2022-09-16T14:47:51.125Z,1.07
2022-09-16T14:50:23.354Z,0.90
2022-09-16T14:52:56.731Z,1.00
2022-09-16T14:55:27.357Z,0.83
2022-09-16T14:57:55.595Z,1.30
2022-09-16T15:00:27.256Z,1.83
2022-09-16T15:02:59.089Z,1.30
2022-09-16T15:05:34.694Z,1.30
2022-09-16T15:08:14.156Z,1.20
2022-09-16T15:10:53.954Z,1.37
2022-09-16T15:13:25.536Z,0.80
2022-09-16T15:15:58.398Z,1.30
2022-09-16T15:18:29.645Z,1.10
2022-09-16T15:21:08.508Z,0.90
2022-09-16T15:23:39.743Z,1.00
2022-09-16T15:26:14.686Z,1.50
2022-09-16T15:28:54.899Z,0.90
2022-09-16T16:36:22.188Z,1.20
2022-09-16T16:38:50.247Z,1.10
2022-09-16T16:41:21.481Z,1.93
2022-09-16T16:43:49.920Z,1.43
2022-09-16T16:46:18.575Z,1.40
2022-09-16T16:48:47.189Z,0.73
2022-09-16T16:51:15.197Z,1.30
2022-09-16T16:53:49.432Z,1.53
2022-09-16T17:14:57.657Z,0.70
2022-09-16T17:17:30.647Z,1.10
2022-09-16T17:19:59.978Z,1.20
2022-09-16T17:22:28.008Z,0.87
2022-09-16T17:24:56.268Z,1.00
2022-09-16T17:27:26.979Z,1.00
2022-09-16T17:29:55.012Z,1.00
2022-09-16T17:32:24.519Z,1.47
2022-09-16T17:34:52.573Z,1.10
2022-09-16T17:37:20.759Z,1.20
2022-09-16T17:39:49.686Z,1.30
2022-09-16T17:42:17.853Z,1.33
2022-09-16T17:44:45.855Z,1.30
2022-09-16T17:47:13.955Z,1.20
2022-09-16T17:49:43.320Z,1.00
2022-09-16T17:52:11.317Z,1.00
2022-09-16T17:54:40.853Z,1.30
2022-09-16T17:57:08.911Z,1.10
2022-09-16T17:59:36.912Z,1.10
2022-09-16T18:02:04.952Z,1.93
2022-09-16T18:04:33.060Z,1.30
2022-09-16T18:07:02.651Z,1.20
2022-09-16T18:09:31.833Z,1.33
2022-09-16T18:11:59.894Z,1.20
2022-09-16T18:14:27.951Z,1.73
2022-09-16T18:16:56.237Z,1.47
2022-09-16T18:19:24.338Z,1.10
2022-09-16T18:21:52.857Z,1.93
2022-09-16T18:24:22.322Z,1.30
2022-09-16T18:26:50.435Z,1.10
2022-09-16T18:29:18.593Z,1.30
2022-09-16T18:31:49.161Z,1.30
2022-09-16T18:34:17.945Z,1.17
2022-09-16T18:36:46.001Z,1.00
2022-09-16T18:39:15.724Z,1.03
2022-09-16T18:41:46.420Z,1.13
2022-09-16T18:44:17.538Z,1.00
2022-09-16T18:46:45.579Z,1.23
2022-09-16T18:49:15.025Z,1.13
2022-09-16T18:51:50.462Z,1.37
2022-09-16T18:54:24.704Z,1.40
2022-09-16T18:56:55.892Z,1.03
2022-09-16T18:59:28.398Z,0.97
2022-09-16T19:01:59.281Z,1.20
2022-09-16T19:04:29.403Z,1.13
2022-09-16T19:07:05.706Z,1.13
2022-09-16T19:09:34.127Z,2.17
2022-09-16T19:12:04.207Z,1.00
2022-09-16T19:14:32.250Z,1.27
2022-09-16T19:17:00.324Z,1.00
2022-09-16T19:19:28.432Z,1.47
2022-09-16T19:21:56.618Z,1.40
2022-09-16T19:24:27.011Z,1.13
2022-09-16T19:26:56.903Z,1.40
2022-09-16T19:29:26.305Z,1.00
2022-09-16T19:31:54.848Z,1.43
2022-09-16T19:34:23.391Z,1.37
2022-09-16T19:36:51.687Z,1.37
2022-09-16T19:39:21.393Z,1.27
2022-09-16T19:41:49.575Z,1.30
2022-09-16T19:44:18.962Z,1.50
2022-09-16T19:46:49.504Z,1.33
2022-09-16T19:49:20.444Z,1.50
2022-09-16T19:51:49.443Z,1.50
2022-09-16T19:54:17.879Z,1.20
2022-09-16T19:56:50.361Z,2.00
2022-09-16T19:59:19.974Z,1.23
2022-09-16T20:01:49.788Z,1.40
2022-09-16T20:04:19.854Z,3.27
2022-09-16T20:06:48.609Z,1.70
2022-09-16T20:09:17.312Z,1.47
2022-09-16T20:11:47.001Z,1.67
2022-09-16T20:14:18.786Z,1.83
2022-09-16T20:16:47.415Z,1.57
2022-09-16T20:19:18.216Z,1.10
2022-09-16T20:21:46.454Z,1.80
2022-09-16T20:35:38.203Z,1.50
2022-09-16T20:38:06.243Z,1.23
2022-09-16T20:40:35.622Z,1.50
2022-09-16T20:43:03.696Z,1.67
2022-09-16T20:45:31.797Z,1.37
2022-09-16T20:47:59.847Z,1.50
2022-09-16T20:50:27.865Z,2.37
2022-09-16T20:52:57.451Z,1.43
2022-09-16T20:55:26.387Z,1.33
2022-09-16T20:57:54.477Z,1.20
2022-09-16T21:00:23.384Z,2.00
2022-09-16T21:02:53.898Z,1.57
2022-09-16T21:05:21.974Z,1.30
2022-09-16T21:07:50.026Z,1.30
2022-09-16T21:10:19.522Z,1.80
2022-09-16T21:12:48.712Z,1.30
2022-09-16T21:15:17.107Z,1.50
2022-09-16T21:17:45.114Z,0.83
2022-09-16T21:20:13.141Z,0.97
2022-09-16T21:22:41.701Z,1.37
2022-09-16T21:25:10.156Z,1.40
2022-09-16T21:27:39.557Z,1.13
2022-09-16T21:30:09.151Z,1.33
2022-09-16T21:32:37.157Z,1.03
2022-09-16T21:35:05.875Z,1.00
2022-09-16T21:37:33.933Z,1.73
2022-09-16T21:40:02.404Z,1.50
2022-09-16T21:42:31.131Z,1.33
2022-09-16T21:45:00.946Z,1.90
2022-09-16T21:47:28.995Z,1.23
2022-09-16T21:49:59.063Z,1.30
2022-09-16T21:52:27.179Z,0.93
2022-09-16T21:54:55.261Z,2.07
2022-09-16T21:57:23.322Z,1.13
2022-09-16T21:59:51.404Z,1.03
2022-09-16T22:02:20.993Z,1.20
2022-09-16T22:04:49.200Z,1.17
2022-09-16T22:07:17.202Z,1.37
2022-09-16T22:09:45.559Z,0.97
2022-09-16T22:12:13.836Z,1.60
2022-09-16T22:14:41.858Z,1.00
2022-09-16T22:17:09.910Z,1.30
2022-09-16T22:19:39.306Z,1.30
2022-09-16T22:22:07.332Z,0.97
2022-09-16T22:24:35.385Z,0.93
2022-09-16T22:27:03.466Z,1.20
2022-09-16T22:29:31.652Z,1.47
2022-09-16T22:31:59.685Z,1.40
2022-09-16T22:34:27.775Z,1.30
2022-09-16T22:36:57.157Z,1.33
2022-09-16T22:39:25.221Z,1.07
2022-09-16T22:41:53.209Z,1.57
2022-09-16T22:44:21.239Z,1.43
2022-09-16T22:46:49.382Z,1.70
2022-09-16T22:49:17.724Z,1.33
2022-09-16T22:51:46.088Z,1.20
2022-09-16T22:54:15.905Z,1.47
2022-09-16T22:56:44.910Z,1.40
2022-09-16T22:59:18.112Z,1.30
2022-09-16T23:01:46.409Z,1.27
2022-09-16T23:04:14.605Z,1.10
2022-09-16T23:06:43.282Z,1.20
2022-09-16T23:09:13.428Z,1.80
2022-09-16T23:11:43.073Z,1.33
2022-09-16T23:14:14.425Z,1.20
2022-09-16T23:16:42.436Z,1.23
2022-09-16T23:19:12.652Z,2.03
2022-09-16T23:21:41.688Z,1.67
2022-09-16T23:24:13.299Z,1.70
2022-09-16T23:26:43.020Z,1.77
2022-09-16T23:29:12.491Z,3.10
2022-09-16T23:31:43.900Z,2.33
2022-09-16T23:34:15.697Z,2.47
2022-09-16T23:36:44.153Z,1.50
2022-09-16T23:39:14.155Z,2.60
2022-09-16T23:41:44.309Z,2.20
2022-09-16T23:44:14.787Z,1.90
2022-09-16T23:46:43.208Z,1.53
2022-09-16T23:49:11.960Z,1.47
2022-09-16T23:51:40.185Z,2.03
2022-09-16T23:54:08.218Z,1.37
2022-09-16T23:56:36.233Z,1.60
2022-09-16T23:59:05.621Z,1.67
